Hovedside
METAR-TAF:

METAR-TAF

Lufthavner :

Oljeplattform

Ekofisk, Norge

breddegrad: 56-33N, lengdegrad: 003-15E, høyde over havet: 3 m

Gjeldene værobservasjon

Denne rapporten ble laget for 39 minutter siden, klokken 12:50 UTC
Vind 25 kt fra Vest-sørvest
Temperatur 7°C
Luftfuktighet 100%
Trykk 1025 hPa
Sikt 10 km eller mer
Få skyer i en høyde av 500 ft
Spredte skyer i en høyde av 2500 ft

METAR: ENLE 231250Z 24025KT 9999 FEW005 SCT025 07/07 Q1025 W08/S4

Tid: 14:29 (13:29 UTC)

Varsel

Denne rapporten ble laget for 2 timer og 29 minutter siden, klokken 11:00 UTC
Varsel gyldig fra 23. klokken 12 UTC til 23. klokken 21 UTC
Vind 25 kt fra Vest-sørvest
Sikt 10 km eller mer
Spredte skyer i en høyde av 200 ft
Brutte skyer i en høyde av 3500 ft
Sannsynlighet 40%
fra 23. klokken 12 UTC til 23. klokken 21 UTC
Sikt: 0500 m
i en høyde av 200 ft
tåke

TAF: ENLE 231100Z 2312/2321 24025KT 9999 SCT002 BKN035 PROB40 2312/2321 0500 FG VV002

Værobservasjoner og værvarsel for over 4000 flyplasser (METAR- og TAF-rapporter).

Tilgjengelige stasjoner er representert av de røde og gule prikkene på kartet.

Hold musepekeren over prikken for å se navnet på stasjonen.

Klikk så for å se værobservasjoner og -varsler.

For å forandre kartet kan du klikke på den grønne knappen med svart kryss for å zoome inn, på den grønne knappen med strek for å zoome ut, eller på de grønne pilene for å se tilstøtende kart.


METAR-TAF: